• Join FlightAware (Why Join?)
  • Login
  • US Flag 
06:13PM EST


 

Airport Tracker/Info


-or-


 

Live Flight TrackerFlight Track Log ✈ EJA898 ✈ 22-Apr-2013 ✈ KJAX - KCAE

Flight Track Log - Related Links

Times and Time Zones

All times are in EDT time to prevent confusion due to time zone crossing. See the EJA898 flight status page for this flight to view local times or setup timezone preferences in your user account.

Time Position Orientation Groundspeed Altitude Reporting Facility
EDT Latitude Longitude Course Direction KTS MPH feet Rate Location/Type
09:47AM 30.5108 -81.6364 69° East 194 223 3,200  Level Jacksonville Center
09:48AM 30.5756 -81.6258 North 247 284 7,300 3,780 Climbing Jacksonville Center
09:49AM 30.6508 -81.6369 353° North 293 337 11,000 3,060 Climbing Jacksonville Center
09:50AM 30.7406 -81.6453 355° North 304 350 13,600 2,820 Climbing Jacksonville Center
09:51AM 30.8408 -81.6369 North 328 377 16,700 3,300 Climbing Jacksonville Center
09:52AM 30.9347 -81.6233 North 344 396 20,300 2,820 Climbing Jacksonville Center
09:53AM 31.0325 -81.6075 North 344 396 22,400 1,320 Climbing Jacksonville Center
09:54AM 31.1453 -81.5914 North 396 456 23,000 300 Climbing Jacksonville Center
09:55AM 31.2661 -81.5703 North 432 497 23,000  Level Jacksonville Center
09:56AM 31.3847 -81.5467 10° North 437 503 23,000  Level Jacksonville Center
09:57AM 31.4975 -81.5306 North 413 475 23,000  Level Jacksonville Center
09:58AM 31.5975 -81.5144 North 405 466 23,000  Level Jacksonville Center
10:00AM 31.7031 -81.4685 20° North  Level FlightAware Approximate
10:00AM 31.8247 -81.4792 20° North 405 466 23,000  Level Jacksonville Center
10:01AM 31.9517 -81.4578 North 410 472 23,000  Level Jacksonville Center
10:02AM 32.0664 -81.4389 North 410 472 23,000  Level Jacksonville Center
10:03AM 32.1706 -81.4225 North 418 481 23,000  Level Jacksonville Center
10:04AM 32.2997 -81.4006 North 418 481 23,000  Level Jacksonville Center
10:05AM 32.4142 -81.3792 North 423 487 23,000 -660 Level Jacksonville Center
10:06AM 32.5206 -81.3650 North 423 487 21,700 -1,920 Descending Jacksonville Center
10:07AM 32.6497 -81.3431 North 423 487 19,200 -2,100 Descending Jacksonville Center
10:08AM 32.7539 -81.3242 North 423 487 17,500 -1,980 Descending Jacksonville Center
10:09AM 32.8642 -81.3047 North 416 479 15,300 -2,220 Descending Jacksonville Center
10:10AM 32.9664 -81.2858 North 394 453 13,100 -2,160 Descending Jacksonville Center
10:11AM 33.0664 -81.2714 North 369 425 11,000 -1,140 Descending Jacksonville Center
10:12AM 33.1581 -81.2550 North 348 400 10,900 -60 Descending Jacksonville Center
10:13AM 33.2497 -81.2408 North 336 387 10,900  Level Jacksonville Center
10:14AM 33.3453 -81.2242 North 331 381 10,900 -480 Level Jacksonville Center
10:15AM 33.4350 -81.2075 North 331 381 10,000 -1,800 Descending Jacksonville Center
10:16AM 33.5100 -81.2011 North 300 345 7,400 -2,640 Descending Jacksonville Center
10:17AM 33.5814 -81.2372 337° Northwest 270 311 4,800 -2,280 Descending Jacksonville Center
10:18AM 33.6569 -81.2606 346° North 258 297 2,900 -1,200 Descending Jacksonville Center
10:19AM 33.7108 -81.2372 20° North 238 274 2,400 -240 Descending Jacksonville Center
10:20AM 33.7711 -81.2161 16° North 226 260 2,500  Climbing Jacksonville Center
10:21AM 33.8231 -81.1975 17° North 209 241 2,500  Level Jacksonville Center
10:23AM 33.9211 -81.1315 North  Level Estimated
10:30AM 33.9333 -81.1167 North  Level FlightAware Approximate
10:31AM 33.9388 -81.1195 North  Level Estimated
10:32AM 33.9333 -81.1167 North  Level FlightAware Approximate